Time,TemperatureF,DewpointF,PressureIn,WindDirection,WindDirectionDegrees,WindSpeedMPH,WindSpeedGustMPH,Humidity,HourlyPrecipIn,Conditions,Clouds,dailyrainin,SoftwareType,DateUTC
2013-07-17 00:01:00,75.6,71.5,30.40,ENE,67,0.0,0.0,87,0.00,,,0.00,WUHU21623XXSP,2013-07-17 04:01:00,
2013-07-17 00:02:00,75.6,71.5,30.40,ENE,67,0.0,0.0,87,0.00,,,0.00,WUHU21623XXSP,2013-07-17 04:02:00,
2013-07-17 00:07:00,75.6,71.5,30.40,ESE,112,0.0,0.0,87,0.00,,,0.00,WUHU21623XXSP,2013-07-17 04:07:00,
2013-07-17 00:12:00,75.6,71.5,30.40,ENE,67,0.0,0.0,87,0.00,,,0.00,WUHU21623XXSP,2013-07-17 04:12:00,
2013-07-17 00:17:00,75.6,71.5,30.40,ENE,67,0.0,0.0,87,0.00,,,0.00,WUHU21623XXSP,2013-07-17 04:17:00,
2013-07-17 00:22:00,75.6,71.5,30.40,ENE,67,0.0,0.0,87,0.00,,,0.00,WUHU21623XXSP,2013-07-17 04:22:00,
2013-07-17 00:27:00,75.6,71.5,30.40,NNE,22,0.0,0.0,87,0.00,,,0.00,WUHU21623XXSP,2013-07-17 04:27:00,
2013-07-17 00:32:00,75.8,71.7,30.40,ENE,67,0.0,0.0,87,0.00,,,0.00,WUHU21623XXSP,2013-07-17 04:32:00,
2013-07-17 00:37:00,75.8,71.7,30.40,ENE,67,0.0,0.0,87,0.00,,,0.00,WUHU21623XXSP,2013-07-17 04:37:00,
2013-07-17 00:42:00,75.8,71.7,30.40,North,0,0.0,0.0,87,0.00,,,0.00,WUHU21623XXSP,2013-07-17 04:42:00,
2013-07-17 00:47:00,75.8,71.7,30.40,NE,45,0.0,0.0,87,0.00,,,0.00,WUHU21623XXSP,2013-07-17 04:47:00,
2013-07-17 00:52:00,75.8,71.7,30.40,ENE,67,0.0,0.0,87,0.00,,,0.00,WUHU21623XXSP,2013-07-17 04:52:00,
2013-07-17 00:55:00,75.8,71.7,30.40,NE,45,0.0,0.0,87,0.00,,,0.00,WUHU21623XXSP,2013-07-17 04:55:00,
2013-07-17 00:59:00,75.6,71.5,30.40,NE,45,0.0,0.0,87,0.00,,,0.00,WUHU21623XXSP,2013-07-17 04:59:00,
2013-07-17 01:04:00,75.8,71.7,30.40,NE,45,0.0,0.0,87,0.00,,,0.00,WUHU21623XXSP,2013-07-17 05:04:00,
2013-07-17 01:09:00,75.8,71.7,30.40,NE,45,0.0,0.0,87,0.00,,,0.00,WUHU21623XXSP,2013-07-17 05:09:00,
2013-07-17 01:14:00,75.6,71.5,30.39,NNE,22,0.0,0.0,87,0.00,,,0.00,WUHU21623XXSP,2013-07-17 05:14:00,
2013-07-17 01:19:00,75.6,71.5,30.39,ESE,112,0.0,0.0,87,0.00,,,0.00,WUHU21623XXSP,2013-07-17 05:19:00,
2013-07-17 01:24:00,75.6,71.5,30.39,ENE,67,0.0,0.0,87,0.00,,,0.00,WUHU21623XXSP,2013-07-17 05:24:00,
2013-07-17 01:29:00,75.6,71.8,30.39,ENE,67,0.0,0.0,88,0.00,,,0.00,WUHU21623XXSP,2013-07-17 05:29:00,
2013-07-17 01:34:00,75.6,71.8,30.39,ESE,112,0.0,0.0,88,0.00,,,0.00,WUHU21623XXSP,2013-07-17 05:34:00,
2013-07-17 01:39:00,75.6,71.8,30.39,ENE,67,0.0,0.0,88,0.00,,,0.00,WUHU21623XXSP,2013-07-17 05:39:00,
2013-07-17 01:44:00,75.6,71.8,30.39,ENE,67,0.0,0.0,88,0.00,,,0.00,WUHU21623XXSP,2013-07-17 05:44:00,
2013-07-17 01:49:00,75.6,71.8,30.39,ESE,112,0.0,0.0,88,0.00,,,0.00,WUHU21623XXSP,2013-07-17 05:49:00,
2013-07-17 01:54:00,75.6,72.1,30.38,NE,45,0.0,0.0,89,0.00,,,0.00,WUHU21623XXSP,2013-07-17 05:54:00,
2013-07-17 01:59:00,75.5,72.0,30.38,ENE,67,0.0,0.0,89,0.00,,,0.00,WUHU21623XXSP,2013-07-17 05:59:00,
2013-07-17 02:04:00,75.5,72.0,30.38,SE,135,0.0,0.0,89,0.00,,,0.00,WUHU21623XXSP,2013-07-17 06:04:00,
2013-07-17 02:09:00,75.5,72.0,30.39,ESE,112,0.0,0.0,89,0.00,,,0.00,WUHU21623XXSP,2013-07-17 06:09:00,
2013-07-17 02:14:00,75.5,72.4,30.38,ENE,67,0.0,0.0,90,0.00,,,0.00,WUHU21623XXSP,2013-07-17 06:14:00,
2013-07-17 02:19:00,75.6,72.4,30.38,ENE,67,0.0,0.0,90,0.00,,,0.00,WUHU21623XXSP,2013-07-17 06:19:00,
2013-07-17 02:24:00,75.6,72.4,30.38,NE,45,0.0,0.0,90,0.00,,,0.00,WUHU21623XXSP,2013-07-17 06:24:00,
2013-07-17 02:29:00,75.6,72.4,30.38,NE,45,0.0,0.0,90,0.00,,,0.00,WUHU21623XXSP,2013-07-17 06:29:00,
2013-07-17 02:34:00,75.5,72.4,30.38,ENE,67,0.0,0.0,90,0.00,,,0.00,WUHU21623XXSP,2013-07-17 06:34:00,
2013-07-17 02:39:00,75.5,72.4,30.38,NE,45,0.0,0.0,90,0.00,,,0.00,WUHU21623XXSP,2013-07-17 06:39:00,
2013-07-17 02:44:00,75.3,72.2,30.38,ESE,112,0.0,0.0,90,0.00,,,0.00,WUHU21623XXSP,2013-07-17 06:44:00,
2013-07-17 02:49:00,75.3,72.2,30.38,NNE,22,0.0,0.0,90,0.00,,,0.00,WUHU21623XXSP,2013-07-17 06:49:00,
2013-07-17 02:54:00,75.3,72.2,30.38,ESE,112,0.0,0.0,90,0.00,,,0.00,WUHU21623XXSP,2013-07-17 06:54:00,
2013-07-17 02:59:00,75.3,72.2,30.37,ENE,67,0.0,0.0,90,0.00,,,0.00,WUHU21623XXSP,2013-07-17 06:59:00,
2013-07-17 03:04:00,75.3,72.2,30.38,NE,45,0.0,0.0,90,0.00,,,0.00,WUHU21623XXSP,2013-07-17 07:04:00,
2013-07-17 03:09:00,75.3,72.2,30.37,NNE,22,0.0,0.0,90,0.00,,,0.00,WUHU21623XXSP,2013-07-17 07:09:00,
2013-07-17 03:14:00,75.3,72.2,30.38,NE,45,0.0,0.0,90,0.00,,,0.00,WUHU21623XXSP,2013-07-17 07:14:00,
2013-07-17 03:19:00,75.3,72.2,30.38,NE,45,0.0,0.0,90,0.00,,,0.00,WUHU21623XXSP,2013-07-17 07:19:00,
2013-07-17 03:24:00,75.1,72.0,30.37,NE,45,0.0,0.0,90,0.00,,,0.00,WUHU21623XXSP,2013-07-17 07:24:00,
2013-07-17 03:29:00,74.9,71.8,30.37,NNE,22,0.0,0.0,90,0.00,,,0.00,WUHU21623XXSP,2013-07-17 07:29:00,
2013-07-17 03:34:00,74.9,71.8,30.37,NE,45,0.0,0.0,90,0.00,,,0.00,WUHU21623XXSP,2013-07-17 07:34:00,
2013-07-17 03:39:00,74.9,71.8,30.37,NE,45,0.0,0.0,90,0.00,,,0.00,WUHU21623XXSP,2013-07-17 07:39:00,
2013-07-17 03:44:00,74.9,71.8,30.36,NE,45,0.0,0.0,90,0.00,,,0.00,WUHU21623XXSP,2013-07-17 07:44:00,
2013-07-17 03:49:00,74.7,71.6,30.36,North,0,0.0,0.0,90,0.00,,,0.00,WUHU21623XXSP,2013-07-17 07:49:00,
2013-07-17 03:54:00,74.7,71.6,30.37,NE,45,0.0,0.0,90,0.00,,,0.00,WUHU21623XXSP,2013-07-17 07:54:00,
2013-07-17 03:59:00,74.7,71.6,30.37,NE,45,0.0,0.0,90,0.00,,,0.00,WUHU21623XXSP,2013-07-17 07:59:00,
2013-07-17 04:04:00,74.7,71.6,30.36,ENE,67,0.0,0.0,90,0.00,,,0.00,WUHU21623XXSP,2013-07-17 08:04:00,
2013-07-17 04:09:00,74.7,71.6,30.37,ENE,67,0.0,0.0,90,0.00,,,0.00,WUHU21623XXSP,2013-07-17 08:09:00,
2013-07-17 04:14:00,74.6,71.5,30.37,ENE,67,0.0,0.0,90,0.00,,,0.00,WUHU21623XXSP,2013-07-17 08:14:00,
2013-07-17 04:19:00,74.6,71.5,30.36,ESE,112,0.0,0.0,90,0.00,,,0.00,WUHU21623XXSP,2013-07-17 08:19:00,
2013-07-17 04:24:00,74.6,71.5,30.36,ENE,67,0.0,0.0,90,0.00,,,0.00,WUHU21623XXSP,2013-07-17 08:24:00,
2013-07-17 04:29:00,74.6,71.8,30.36,NE,45,0.0,0.0,91,0.00,,,0.00,WUHU21623XXSP,2013-07-17 08:29:00,
2013-07-17 04:34:00,74.7,71.9,30.36,NE,45,0.0,0.0,91,0.00,,,0.00,WUHU21623XXSP,2013-07-17 08:34:00,
2013-07-17 04:39:00,74.7,71.9,30.36,NNE,22,0.0,0.0,91,0.00,,,0.00,WUHU21623XXSP,2013-07-17 08:39:00,
2013-07-17 04:44:00,74.7,71.9,30.35,NNE,22,0.0,0.0,91,0.00,,,0.00,WUHU21623XXSP,2013-07-17 08:44:00,
2013-07-17 04:49:00,74.6,71.8,30.36,ENE,67,0.0,0.0,91,0.00,,,0.00,WUHU21623XXSP,2013-07-17 08:49:00,
2013-07-17 04:54:00,74.6,71.8,30.35,ENE,67,0.0,0.0,91,0.00,,,0.00,WUHU21623XXSP,2013-07-17 08:54:00,
2013-07-17 04:59:00,74.6,71.8,30.36,ENE,67,0.0,0.0,91,0.00,,,0.00,WUHU21623XXSP,2013-07-17 08:59:00,
2013-07-17 05:04:00,74.6,71.8,30.36,NE,45,0.0,0.0,91,0.00,,,0.00,WUHU21623XXSP,2013-07-17 09:04:00,
2013-07-17 05:09:00,74.6,71.8,30.36,NNE,22,0.0,0.0,91,0.00,,,0.00,WUHU21623XXSP,2013-07-17 09:09:00,
2013-07-17 05:14:00,74.4,71.6,30.36,NE,45,0.0,0.0,91,0.00,,,0.00,WUHU21623XXSP,2013-07-17 09:14:00,
2013-07-17 05:19:00,74.4,71.6,30.37,NE,45,0.0,0.0,91,0.00,,,0.00,WUHU21623XXSP,2013-07-17 09:19:00,
2013-07-17 05:24:00,74.4,71.6,30.37,NE,45,0.0,0.0,91,0.00,,,0.00,WUHU21623XXSP,2013-07-17 09:24:00,
2013-07-17 05:29:00,74.6,71.8,30.37,NE,45,0.0,0.0,91,0.00,,,0.00,WUHU21623XXSP,2013-07-17 09:29:00,
2013-07-17 05:34:00,74.6,71.8,30.37,NE,45,0.0,0.0,91,0.00,,,0.00,WUHU21623XXSP,2013-07-17 09:34:00,
2013-07-17 05:39:00,74.6,71.8,30.37,NE,45,0.0,0.0,91,0.00,,,0.00,WUHU21623XXSP,2013-07-17 09:39:00,
2013-07-17 05:44:00,74.6,71.8,30.37,ENE,67,0.0,0.0,91,0.00,,,0.00,WUHU21623XXSP,2013-07-17 09:44:00,
2013-07-17 05:49:00,74.6,71.8,30.37,ENE,67,0.0,0.0,91,0.00,,,0.00,WUHU21623XXSP,2013-07-17 09:49:00,
2013-07-17 05:54:00,74.6,72.1,30.37,NE,45,0.0,0.0,92,0.00,,,0.00,WUHU21623XXSP,2013-07-17 09:54:00,
2013-07-17 05:59:00,74.6,72.1,30.36,NE,45,0.0,0.0,92,0.00,,,0.00,WUHU21623XXSP,2013-07-17 09:59:00,
2013-07-17 06:04:00,74.6,72.1,30.37,NE,45,0.0,0.0,92,0.00,,,0.00,WUHU21623XXSP,2013-07-17 10:04:00,
2013-07-17 06:09:00,74.4,71.9,30.37,NE,45,0.0,0.0,92,0.00,,,0.00,WUHU21623XXSP,2013-07-17 10:09:00,
2013-07-17 06:14:00,74.4,71.9,30.37,NE,45,0.0,0.0,92,0.00,,,0.00,WUHU21623XXSP,2013-07-17 10:14:00,
2013-07-17 06:19:00,74.4,71.9,30.37,NE,45,0.0,0.0,92,0.00,,,0.00,WUHU21623XXSP,2013-07-17 10:19:00,
2013-07-17 06:24:00,74.4,71.9,30.37,ENE,67,0.0,0.0,92,0.00,,,0.00,WUHU21623XXSP,2013-07-17 10:24:00,
2013-07-17 06:29:00,74.2,71.7,30.37,NNE,22,0.0,0.0,92,0.00,,,0.00,WUHU21623XXSP,2013-07-17 10:29:00,
2013-07-17 06:34:00,74.0,71.5,30.37,NE,45,0.0,0.0,92,0.00,,,0.00,WUHU21623XXSP,2013-07-17 10:34:00,
2013-07-17 06:39:00,74.0,71.5,30.37,NNE,22,0.0,0.0,92,0.00,,,0.00,WUHU21623XXSP,2013-07-17 10:39:00,
2013-07-17 06:44:00,74.0,71.5,30.37,NNE,22,0.0,0.0,92,0.00,,,0.00,WUHU21623XXSP,2013-07-17 10:44:00,
2013-07-17 06:49:00,74.0,71.5,30.37,NE,45,0.0,0.0,92,0.00,,,0.00,WUHU21623XXSP,2013-07-17 10:49:00,
2013-07-17 06:54:00,74.0,71.5,30.38,NNE,22,0.0,0.0,92,0.00,,,0.00,WUHU21623XXSP,2013-07-17 10:54:00,
2013-07-17 06:59:00,74.0,71.5,30.38,NNE,22,0.0,0.0,92,0.00,,,0.00,WUHU21623XXSP,2013-07-17 10:59:00,
2013-07-17 07:04:00,74.4,72.2,30.37,NNE,22,0.0,0.0,93,0.00,,,0.00,WUHU21623XXSP,2013-07-17 11:04:00,
2013-07-17 07:09:00,74.4,72.2,30.38,ENE,67,0.0,0.0,93,0.00,,,0.00,WUHU21623XXSP,2013-07-17 11:09:00,
2013-07-17 07:14:00,74.6,72.4,30.38,NNE,22,0.0,0.0,93,0.00,,,0.00,WUHU21623XXSP,2013-07-17 11:14:00,
2013-07-17 07:19:00,74.6,72.4,30.37,NNE,22,0.0,0.0,93,0.00,,,0.00,WUHU21623XXSP,2013-07-17 11:19:00,
2013-07-17 07:24:00,74.7,72.5,30.38,North,0,0.0,0.0,93,0.00,,,0.00,WUHU21623XXSP,2013-07-17 11:24:00,
2013-07-17 07:29:00,74.9,72.7,30.38,NE,45,0.0,0.0,93,0.00,,,0.00,WUHU21623XXSP,2013-07-17 11:29:00,
2013-07-17 07:34:00,75.3,73.1,30.39,NE,45,0.0,0.0,93,0.00,,,0.00,WUHU21623XXSP,2013-07-17 11:34:00,
2013-07-17 07:39:00,75.5,73.0,30.39,ENE,67,0.0,0.0,92,0.00,,,0.00,WUHU21623XXSP,2013-07-17 11:39:00,
2013-07-17 07:44:00,75.8,73.3,30.39,NE,45,0.0,0.0,92,0.00,,,0.00,WUHU21623XXSP,2013-07-17 11:44:00,
2013-07-17 07:49:00,76.2,73.7,30.39,NE,45,0.0,0.0,92,0.00,,,0.00,WUHU21623XXSP,2013-07-17 11:49:00,
2013-07-17 07:54:00,76.7,73.9,30.39,SE,135,0.0,0.0,91,0.00,,,0.00,WUHU21623XXSP,2013-07-17 11:54:00,
2013-07-17 07:59:00,77.4,74.6,30.39,NE,45,0.0,0.0,91,0.00,,,0.00,WUHU21623XXSP,2013-07-17 11:59:00,
2013-07-17 08:04:00,78.3,75.1,30.40,ESE,112,0.0,0.0,90,0.00,,,0.00,WUHU21623XXSP,2013-07-17 12:04:00,
2013-07-17 08:09:00,78.9,75.4,30.40,ESE,112,0.0,0.0,89,0.00,,,0.00,WUHU21623XXSP,2013-07-17 12:09:00,
2013-07-17 08:14:00,78.9,75.1,30.40,ENE,67,0.0,0.0,88,0.00,,,0.00,WUHU21623XXSP,2013-07-17 12:14:00,
2013-07-17 08:19:00,78.9,74.7,30.40,East,90,0.0,0.0,87,0.00,,,0.00,WUHU21623XXSP,2013-07-17 12:19:00,
2013-07-17 08:24:00,79.2,75.0,30.41,ENE,67,0.0,0.0,87,0.00,,,0.00,WUHU21623XXSP,2013-07-17 12:24:00,
2013-07-17 08:29:00,78.9,74.4,30.41,NE,45,0.0,0.0,86,0.00,,,0.00,WUHU21623XXSP,2013-07-17 12:29:00,
2013-07-17 08:34:00,78.7,74.5,30.41,NE,45,0.0,0.0,87,0.00,,,0.00,WUHU21623XXSP,2013-07-17 12:34:00,
2013-07-17 08:39:00,78.9,74.7,30.41,NE,45,0.0,0.0,87,0.00,,,0.00,WUHU21623XXSP,2013-07-17 12:39:00,
2013-07-17 08:44:00,79.2,75.0,30.41,ENE,67,0.0,0.0,87,0.00,,,0.00,WUHU21623XXSP,2013-07-17 12:44:00,
2013-07-17 08:49:00,79.8,75.3,30.42,ENE,67,0.0,0.0,86,0.00,,,0.00,WUHU21623XXSP,2013-07-17 12:49:00,
2013-07-17 08:54:00,80.1,75.2,30.42,ENE,67,0.0,0.0,85,0.00,,,0.00,WUHU21623XXSP,2013-07-17 12:54:00,
2013-07-17 08:59:00,80.3,75.1,30.41,NE,45,0.0,0.0,84,0.00,,,0.00,WUHU21623XXSP,2013-07-17 12:59:00,
2013-07-17 09:04:00,80.5,75.3,30.41,North,0,0.0,0.0,84,0.00,,,0.00,WUHU21623XXSP,2013-07-17 13:04:00,
2013-07-17 09:09:00,81.0,75.8,30.41,ENE,67,0.0,0.0,84,0.00,,,0.00,WUHU21623XXSP,2013-07-17 13:09:00,
2013-07-17 09:14:00,81.2,75.6,30.41,East,90,0.0,0.0,83,0.00,,,0.00,WUHU21623XXSP,2013-07-17 13:14:00,
2013-07-17 09:19:00,81.9,76.0,30.41,ENE,67,0.0,0.0,82,0.00,,,0.00,WUHU21623XXSP,2013-07-17 13:19:00,
2013-07-17 09:24:00,82.3,76.0,30.41,NNE,22,0.0,0.0,81,0.00,,,0.00,WUHU21623XXSP,2013-07-17 13:24:00,
2013-07-17 09:29:00,82.7,76.0,30.41,ENE,67,0.0,0.0,80,0.00,,,0.00,WUHU21623XXSP,2013-07-17 13:29:00,
2013-07-17 09:34:00,83.0,76.3,30.40,NE,45,0.0,0.0,80,0.00,,,0.00,WUHU21623XXSP,2013-07-17 13:34:00,
2013-07-17 09:39:00,83.6,76.5,30.40,East,90,0.0,0.0,79,0.00,,,0.00,WUHU21623XXSP,2013-07-17 13:39:00,
2013-07-17 09:44:00,83.7,75.9,30.40,North,0,0.0,0.0,77,0.00,,,0.00,WUHU21623XXSP,2013-07-17 13:44:00,
2013-07-17 09:49:00,83.9,76.1,30.40,ENE,67,0.0,0.0,77,0.00,,,0.00,WUHU21623XXSP,2013-07-17 13:49:00,
2013-07-17 09:54:00,84.1,76.3,30.40,ENE,67,0.0,0.0,77,0.00,,,0.00,WUHU21623XXSP,2013-07-17 13:54:00,
2013-07-17 09:59:00,84.3,76.5,30.40,East,90,0.0,0.0,77,0.00,,,0.00,WUHU21623XXSP,2013-07-17 13:59:00,
2013-07-17 10:04:00,84.5,76.3,30.40,ESE,112,0.0,0.0,76,0.00,,,0.00,WUHU21623XXSP,2013-07-17 14:04:00,
2013-07-17 10:09:00,84.8,77.0,30.40,East,90,0.0,0.0,77,0.00,,,0.00,WUHU21623XXSP,2013-07-17 14:09:00,
2013-07-17 10:14:00,85.5,76.9,30.40,NNE,22,0.0,0.0,75,0.00,,,0.00,WUHU21623XXSP,2013-07-17 14:14:00,
2013-07-17 10:19:00,85.7,76.7,30.39,NNE,22,0.0,0.0,74,0.00,,,0.00,WUHU21623XXSP,2013-07-17 14:19:00,
2013-07-17 10:24:00,86.1,76.7,30.39,ENE,67,0.0,0.0,73,0.00,,,0.00,WUHU21623XXSP,2013-07-17 14:24:00,
2013-07-17 10:29:00,86.4,76.9,30.39,NE,45,0.0,0.0,73,0.00,,,0.00,WUHU21623XXSP,2013-07-17 14:29:00,
2013-07-17 10:34:00,86.6,76.7,30.39,ENE,67,0.0,0.0,72,0.00,,,0.00,WUHU21623XXSP,2013-07-17 14:34:00,
2013-07-17 10:39:00,87.0,76.7,30.39,ENE,67,0.0,0.0,71,0.00,,,0.00,WUHU21623XXSP,2013-07-17 14:39:00,
2013-07-17 10:45:00,87.2,76.9,30.39,SE,135,0.0,0.0,71,0.00,,,0.00,WUHU21623XXSP,2013-07-17 14:45:00,
2013-07-17 10:50:00,87.3,77.0,30.39,ESE,112,0.0,0.0,71,0.00,,,0.00,WUHU21623XXSP,2013-07-17 14:50:00,
2013-07-17 10:55:00,87.5,76.3,30.39,ESE,112,0.0,0.0,69,0.00,,,0.00,WUHU21623XXSP,2013-07-17 14:55:00,
2013-07-17 11:00:00,87.7,77.0,30.39,ESE,112,0.0,0.0,70,0.00,,,0.00,WUHU21623XXSP,2013-07-17 15:00:00,
2013-07-17 11:05:00,88.2,77.0,30.38,NE,45,0.0,0.0,69,0.00,,,0.00,WUHU21623XXSP,2013-07-17 15:05:00,
2013-07-17 11:10:00,88.4,76.8,30.38,North,0,0.0,0.0,68,0.00,,,0.00,WUHU21623XXSP,2013-07-17 15:10:00,
2013-07-17 11:15:00,88.8,77.2,30.38,ENE,67,0.0,0.0,68,0.00,,,0.00,WUHU21623XXSP,2013-07-17 15:15:00,
2013-07-17 11:20:00,89.1,77.0,30.38,SE,135,0.0,0.0,67,0.00,,,0.00,WUHU21623XXSP,2013-07-17 15:20:00,
2013-07-17 11:25:00,89.3,76.7,30.39,East,90,0.0,0.0,66,0.00,,,0.00,WUHU21623XXSP,2013-07-17 15:25:00,
2013-07-17 11:30:00,89.7,76.7,30.39,ESE,112,0.0,0.0,65,0.00,,,0.00,WUHU21623XXSP,2013-07-17 15:30:00,
2013-07-17 11:35:00,90.0,76.5,30.38,East,90,0.0,0.0,64,0.00,,,0.00,WUHU21623XXSP,2013-07-17 15:35:00,
2013-07-17 11:40:00,90.2,75.7,30.39,SE,135,0.0,0.0,62,0.00,,,0.00,WUHU21623XXSP,2013-07-17 15:40:00,
2013-07-17 11:45:00,90.0,75.5,30.38,East,90,0.0,0.0,62,0.00,,,0.00,WUHU21623XXSP,2013-07-17 15:45:00,
2013-07-17 11:50:00,90.0,76.0,30.38,ENE,67,0.0,0.0,63,0.00,,,0.00,WUHU21623XXSP,2013-07-17 15:50:00,
2013-07-17 11:55:00,90.2,75.7,30.38,ESE,112,0.0,0.0,62,0.00,,,0.00,WUHU21623XXSP,2013-07-17 15:55:00,
2013-07-17 12:00:00,89.7,75.3,30.38,ESE,112,0.0,0.0,62,0.00,,,0.00,WUHU21623XXSP,2013-07-17 16:00:00,
2013-07-17 12:05:00,89.7,75.7,30.38,ESE,112,0.0,0.0,63,0.00,,,0.00,WUHU21623XXSP,2013-07-17 16:05:00,
2013-07-17 12:10:00,90.6,75.6,30.39,ESE,112,0.0,0.0,61,0.00,,,0.00,WUHU21623XXSP,2013-07-17 16:10:00,
2013-07-17 12:15:00,90.6,75.6,30.39,ENE,67,0.0,0.0,61,0.00,,,0.00,WUHU21623XXSP,2013-07-17 16:15:00,
2013-07-17 12:20:00,91.3,76.8,30.39,SE,135,0.0,0.0,62,0.00,,,0.00,WUHU21623XXSP,2013-07-17 16:20:00,
2013-07-17 12:25:00,91.5,76.0,30.39,East,90,0.0,0.0,60,0.00,,,0.00,WUHU21623XXSP,2013-07-17 16:25:00,
2013-07-17 12:30:00,91.1,76.1,30.39,SE,135,0.0,0.0,61,0.00,,,0.00,WUHU21623XXSP,2013-07-17 16:30:00,
2013-07-17 12:35:00,91.3,76.3,30.39,SE,135,0.0,0.0,61,0.00,,,0.00,WUHU21623XXSP,2013-07-17 16:35:00,
2013-07-17 12:40:00,91.8,76.7,30.39,ESE,112,0.0,0.0,61,0.00,,,0.00,WUHU21623XXSP,2013-07-17 16:40:00,
2013-07-17 12:45:00,92.0,75.9,30.38,ESE,112,0.0,0.0,59,0.00,,,0.00,WUHU21623XXSP,2013-07-17 16:45:00,
2013-07-17 12:50:00,92.0,75.4,30.38,ESE,112,0.0,0.0,58,0.00,,,0.00,WUHU21623XXSP,2013-07-17 16:50:00,
2013-07-17 12:55:00,91.8,75.7,30.38,ENE,67,0.0,0.0,59,0.00,,,0.00,WUHU21623XXSP,2013-07-17 16:55:00,
2013-07-17 13:00:00,91.8,75.2,30.38,ESE,112,0.0,0.0,58,0.00,,,0.00,WUHU21623XXSP,2013-07-17 17:00:00,
2013-07-17 13:05:00,91.8,75.2,30.38,SE,135,0.0,0.0,58,0.00,,,0.00,WUHU21623XXSP,2013-07-17 17:05:00,
2013-07-17 13:10:00,92.0,75.9,30.37,East,90,0.0,0.0,59,0.00,,,0.00,WUHU21623XXSP,2013-07-17 17:10:00,
2013-07-17 13:15:00,92.4,75.8,30.37,SE,135,0.0,0.0,58,0.00,,,0.00,WUHU21623XXSP,2013-07-17 17:15:00,
2013-07-17 13:20:00,92.7,75.5,30.37,East,90,0.0,0.0,57,0.00,,,0.00,WUHU21623XXSP,2013-07-17 17:20:00,
2013-07-17 13:25:00,92.9,75.7,30.37,East,90,0.0,0.0,57,0.00,,,0.00,WUHU21623XXSP,2013-07-17 17:25:00,
2013-07-17 13:30:00,92.7,75.0,30.37,NE,45,0.0,0.0,56,0.00,,,0.00,WUHU21623XXSP,2013-07-17 17:30:00,
2013-07-17 13:35:00,92.7,75.0,30.37,ESE,112,0.0,0.0,56,0.00,,,0.00,WUHU21623XXSP,2013-07-17 17:35:00,
2013-07-17 13:40:00,92.9,75.7,30.37,ESE,112,0.0,0.0,57,0.00,,,0.00,WUHU21623XXSP,2013-07-17 17:40:00,
2013-07-17 13:45:00,93.6,76.4,30.37,SE,135,0.0,0.0,57,0.00,,,0.00,WUHU21623XXSP,2013-07-17 17:45:00,
2013-07-17 13:50:00,93.6,75.3,30.36,SE,135,0.0,0.0,55,0.00,,,0.00,WUHU21623XXSP,2013-07-17 17:50:00,
2013-07-17 13:55:00,94.0,75.7,30.36,SE,135,0.0,0.0,55,0.00,,,0.00,WUHU21623XXSP,2013-07-17 17:55:00,
2013-07-17 14:00:00,93.8,74.9,30.35,ESE,112,0.0,0.0,54,0.00,,,0.00,WUHU21623XXSP,2013-07-17 18:00:00,
2013-07-17 14:05:00,94.4,75.5,30.35,NE,45,0.0,0.0,54,0.00,,,0.00,WUHU21623XXSP,2013-07-17 18:05:00,
2013-07-17 14:10:00,94.9,75.4,30.35,SE,135,0.0,0.0,53,0.00,,,0.00,WUHU21623XXSP,2013-07-17 18:10:00,
2013-07-17 14:15:00,94.9,74.8,30.35,East,90,0.0,0.0,52,0.00,,,0.00,WUHU21623XXSP,2013-07-17 18:15:00,
2013-07-17 14:20:00,95.1,75.5,30.35,SE,135,0.0,0.0,53,0.00,,,0.00,WUHU21623XXSP,2013-07-17 18:20:00,
2013-07-17 14:25:00,95.1,75.0,30.35,SE,135,0.0,0.0,52,0.00,,,0.00,WUHU21623XXSP,2013-07-17 18:25:00,
2013-07-17 14:30:00,94.9,74.8,30.34,SSE,157,0.0,0.0,52,0.00,,,0.00,WUHU21623XXSP,2013-07-17 18:30:00,
2013-07-17 14:35:00,95.4,75.2,30.34,ESE,112,0.0,0.0,52,0.00,,,0.00,WUHU21623XXSP,2013-07-17 18:35:00,
2013-07-17 14:41:00,95.1,74.4,30.34,ENE,67,0.0,0.0,51,0.00,,,0.00,WUHU21623XXSP,2013-07-17 18:41:00,
2013-07-17 14:46:00,93.6,73.6,30.34,ESE,112,0.0,0.0,52,0.00,,,0.00,WUHU21623XXSP,2013-07-17 18:46:00,
2013-07-17 14:51:00,92.7,73.9,30.34,SE,135,0.0,0.0,54,0.00,,,0.00,WUHU21623XXSP,2013-07-17 18:51:00,
2013-07-17 14:56:00,92.0,73.2,30.34,NE,45,0.0,0.0,54,0.00,,,0.00,WUHU21623XXSP,2013-07-17 18:56:00,
2013-07-17 15:01:00,90.6,73.6,30.34,East,90,0.0,0.0,57,0.00,,,0.00,WUHU21623XXSP,2013-07-17 19:01:00,
2013-07-17 15:06:00,90.2,73.7,30.34,ESE,112,0.0,0.0,58,0.00,,,0.00,WUHU21623XXSP,2013-07-17 19:06:00,
2013-07-17 15:11:00,90.6,74.6,30.33,ESE,112,0.0,0.0,59,0.00,,,0.00,WUHU21623XXSP,2013-07-17 19:11:00,
2013-07-17 15:16:00,91.5,74.9,30.32,East,90,0.0,0.0,58,0.00,,,0.00,WUHU21623XXSP,2013-07-17 19:16:00,
2013-07-17 15:21:00,92.6,75.4,30.32,SE,135,0.0,0.0,57,0.00,,,0.00,WUHU21623XXSP,2013-07-17 19:21:00,
2013-07-17 15:26:00,93.3,76.1,30.32,SSE,157,0.0,0.0,57,0.00,,,0.00,WUHU21623XXSP,2013-07-17 19:26:00,
2013-07-17 15:31:00,93.8,75.5,30.32,SE,135,0.0,0.0,55,0.00,,,0.00,WUHU21623XXSP,2013-07-17 19:31:00,
2013-07-17 15:36:00,94.7,76.3,30.32,NE,45,0.0,0.0,55,0.00,,,0.00,WUHU21623XXSP,2013-07-17 19:36:00,
2013-07-17 15:41:00,95.3,76.3,30.32,SSE,157,0.0,0.0,54,0.00,,,0.00,WUHU21623XXSP,2013-07-17 19:41:00,
2013-07-17 15:46:00,95.6,76.0,30.32,SSE,157,0.0,0.0,53,0.00,,,0.00,WUHU21623XXSP,2013-07-17 19:46:00,
2013-07-17 15:51:00,94.9,74.2,30.32,ESE,112,0.0,0.0,51,0.00,,,0.00,WUHU21623XXSP,2013-07-17 19:51:00,
2013-07-17 15:56:00,92.2,74.5,30.34,ESE,112,0.0,0.0,56,0.04,,,0.04,WUHU21623XXSP,2013-07-17 19:56:00,
2013-07-17 16:01:00,87.3,73.9,30.35,SSE,157,0.0,0.0,64,0.41,,,0.41,WUHU21623XXSP,2013-07-17 20:01:00,
2013-07-17 16:06:00,84.6,73.1,30.35,SSE,157,0.0,0.0,68,0.64,,,0.64,WUHU21623XXSP,2013-07-17 20:06:00,
2013-07-17 16:11:00,82.3,72.2,30.38,ESE,112,0.0,0.0,71,0.78,,,0.78,WUHU21623XXSP,2013-07-17 20:11:00,
2013-07-17 16:16:00,79.2,70.8,30.39,NNE,22,0.0,0.0,75,1.04,,,1.04,WUHU21623XXSP,2013-07-17 20:16:00,
2013-07-17 16:21:00,75.8,67.8,30.37,NNW,337,0.0,0.0,76,1.29,,,1.29,WUHU21623XXSP,2013-07-17 20:21:00,
2013-07-17 16:26:00,73.8,65.5,30.36,ENE,67,0.0,0.0,75,1.43,,,1.43,WUHU21623XXSP,2013-07-17 20:26:00,
2013-07-17 16:31:00,72.8,65.7,30.34,NNE,22,0.0,0.0,78,1.51,,,1.51,WUHU21623XXSP,2013-07-17 20:31:00,
2013-07-17 16:36:00,72.4,65.6,30.34,NNE,22,0.0,0.0,79,1.55,,,1.55,WUHU21623XXSP,2013-07-17 20:36:00,
2013-07-17 16:41:00,72.2,65.8,30.35,NNE,22,0.0,0.0,80,1.57,,,1.57,WUHU21623XXSP,2013-07-17 20:41:00,
2013-07-17 16:46:00,72.2,66.1,30.35,NNE,22,0.0,0.0,81,1.59,,,1.59,WUHU21623XXSP,2013-07-17 20:46:00,
2013-07-17 16:51:00,72.6,66.9,30.35,NNE,22,0.0,0.0,82,1.59,,,1.59,WUHU21623XXSP,2013-07-17 20:51:00,
2013-07-17 16:56:00,72.8,68.1,30.37,ESE,112,0.0,0.0,85,1.53,,,1.59,WUHU21623XXSP,2013-07-17 20:56:00,
2013-07-17 17:01:00,73.5,68.7,30.37,SE,135,0.0,0.0,85,1.14,,,1.59,WUHU21623XXSP,2013-07-17 21:01:00,
2013-07-17 17:06:00,73.7,68.6,30.37,SE,135,0.0,0.0,84,0.95,,,1.59,WUHU21623XXSP,2013-07-17 21:06:00,
2013-07-17 17:11:00,73.5,68.4,30.35,East,90,0.0,0.0,84,0.85,,,1.63,WUHU21623XXSP,2013-07-17 21:11:00,
2013-07-17 17:16:00,73.5,68.7,30.35,SE,135,0.0,0.0,85,0.55,,,1.63,WUHU21623XXSP,2013-07-17 21:16:00,
2013-07-17 17:21:00,73.3,68.6,30.35,SE,135,0.0,0.0,85,0.32,,,1.63,WUHU21623XXSP,2013-07-17 21:21:00,
2013-07-17 17:26:00,73.3,68.6,30.34,SE,135,0.0,0.0,85,0.18,,,1.63,WUHU21623XXSP,2013-07-17 21:26:00,
2013-07-17 17:31:00,73.3,68.6,30.34,SE,135,0.0,0.0,85,0.12,,,1.63,WUHU21623XXSP,2013-07-17 21:31:00,
2013-07-17 17:36:00,73.1,68.4,30.34,ESE,112,0.0,0.0,85,0.08,,,1.63,WUHU21623XXSP,2013-07-17 21:36:00,
2013-07-17 17:41:00,73.3,68.9,30.34,ESE,112,0.0,0.0,86,0.06,,,1.63,WUHU21623XXSP,2013-07-17 21:41:00,
2013-07-17 17:46:00,73.5,69.1,30.34,East,90,0.0,0.0,86,0.04,,,1.63,WUHU21623XXSP,2013-07-17 21:46:00,
2013-07-17 17:52:00,73.5,69.4,30.34,SSE,157,0.0,0.0,87,0.04,,,1.63,WUHU21623XXSP,2013-07-17 21:52:00,
2013-07-17 17:57:00,73.8,69.7,30.34,SSE,157,0.0,0.0,87,0.04,,,1.63,WUHU21623XXSP,2013-07-17 21:57:00,
2013-07-17 18:02:00,74.0,69.9,30.34,SE,135,0.0,0.0,87,0.04,,,1.63,WUHU21623XXSP,2013-07-17 22:02:00,
2013-07-17 18:07:00,74.0,70.2,30.34,SE,135,0.0,0.0,88,0.04,,,1.63,WUHU21623XXSP,2013-07-17 22:07:00,
2013-07-17 18:12:00,74.4,70.6,30.33,SE,135,0.0,0.0,88,0.03,,,1.66,WUHU21623XXSP,2013-07-17 22:12:00,
2013-07-17 18:17:00,74.4,70.6,30.34,SE,135,0.0,0.0,88,0.03,,,1.66,WUHU21623XXSP,2013-07-17 22:17:00,
2013-07-17 18:22:00,74.7,70.9,30.33,SE,135,0.0,0.0,88,0.03,,,1.66,WUHU21623XXSP,2013-07-17 22:22:00,
2013-07-17 18:27:00,74.9,71.4,30.33,SE,135,0.0,0.0,89,0.03,,,1.66,WUHU21623XXSP,2013-07-17 22:27:00,
2013-07-17 18:32:00,74.9,71.4,30.33,SE,135,0.0,0.0,89,0.03,,,1.66,WUHU21623XXSP,2013-07-17 22:32:00,
2013-07-17 18:37:00,74.9,71.4,30.32,ESE,112,0.0,0.0,89,0.03,,,1.66,WUHU21623XXSP,2013-07-17 22:37:00,
2013-07-17 18:42:00,75.1,71.6,30.32,East,90,0.0,0.0,89,0.03,,,1.66,WUHU21623XXSP,2013-07-17 22:42:00,
2013-07-17 18:47:00,75.1,71.6,30.32,ENE,67,0.0,0.0,89,0.03,,,1.66,WUHU21623XXSP,2013-07-17 22:47:00,
2013-07-17 18:52:00,75.3,71.8,30.32,ENE,67,0.0,0.0,89,0.03,,,1.66,WUHU21623XXSP,2013-07-17 22:52:00,
2013-07-17 18:57:00,75.3,71.8,30.32,SE,135,0.0,0.0,89,0.03,,,1.66,WUHU21623XXSP,2013-07-17 22:57:00,
2013-07-17 19:02:00,75.5,72.0,30.32,ESE,112,0.0,0.0,89,0.03,,,1.66,WUHU21623XXSP,2013-07-17 23:02:00,
2013-07-17 19:07:00,75.6,72.1,30.32,ESE,112,0.0,0.0,89,0.03,,,1.66,WUHU21623XXSP,2013-07-17 23:07:00,
2013-07-17 19:12:00,75.6,72.1,30.33,SE,135,0.0,0.0,89,0.00,,,1.66,WUHU21623XXSP,2013-07-17 23:12:00,
2013-07-17 19:17:00,75.6,72.1,30.32,SE,135,0.0,0.0,89,0.00,,,1.66,WUHU21623XXSP,2013-07-17 23:17:00,
2013-07-17 19:22:00,75.8,72.3,30.33,SE,135,0.0,0.0,89,0.00,,,1.66,WUHU21623XXSP,2013-07-17 23:22:00,
2013-07-17 19:27:00,75.8,72.3,30.33,SE,135,0.0,0.0,89,0.00,,,1.66,WUHU21623XXSP,2013-07-17 23:27:00,
2013-07-17 19:32:00,75.8,72.3,30.33,SE,135,0.0,0.0,89,0.00,,,1.66,WUHU21623XXSP,2013-07-17 23:32:00,
2013-07-17 19:37:00,75.8,72.3,30.34,SE,135,0.0,0.0,89,0.00,,,1.66,WUHU21623XXSP,2013-07-17 23:37:00,
2013-07-17 19:42:00,75.8,72.3,30.34,SE,135,0.0,0.0,89,0.00,,,1.66,WUHU21623XXSP,2013-07-17 23:42:00,
2013-07-17 19:47:00,75.8,72.3,30.34,SE,135,0.0,0.0,89,0.00,,,1.66,WUHU21623XXSP,2013-07-17 23:47:00,
2013-07-17 19:52:00,75.8,72.3,30.34,SE,135,0.0,0.0,89,0.00,,,1.66,WUHU21623XXSP,2013-07-17 23:52:00,
2013-07-17 19:57:00,75.8,72.3,30.34,SE,135,0.0,0.0,89,0.00,,,1.66,WUHU21623XXSP,2013-07-17 23:57:00,
2013-07-17 20:02:00,75.8,72.3,30.34,SE,135,0.0,0.0,89,0.00,,,1.66,WUHU21623XXSP,2013-07-18 00:02:00,
2013-07-17 20:07:00,75.8,72.3,30.34,SE,135,0.0,0.0,89,0.00,,,1.66,WUHU21623XXSP,2013-07-18 00:07:00,
2013-07-17 20:12:00,75.6,72.1,30.34,ENE,67,0.0,0.0,89,0.00,,,1.66,WUHU21623XXSP,2013-07-18 00:12:00,
2013-07-17 20:17:00,75.6,72.1,30.34,ESE,112,0.0,0.0,89,0.00,,,1.66,WUHU21623XXSP,2013-07-18 00:17:00,
2013-07-17 20:22:00,75.6,72.1,30.34,ESE,112,0.0,0.0,89,0.00,,,1.66,WUHU21623XXSP,2013-07-18 00:22:00,
2013-07-17 20:27:00,75.8,72.3,30.34,ESE,112,0.0,0.0,89,0.00,,,1.66,WUHU21623XXSP,2013-07-18 00:27:00,
2013-07-17 20:32:00,75.8,72.3,30.34,ESE,112,0.0,0.0,89,0.00,,,1.66,WUHU21623XXSP,2013-07-18 00:32:00,
2013-07-17 20:37:00,75.8,72.3,30.34,ESE,112,0.0,0.0,89,0.00,,,1.66,WUHU21623XXSP,2013-07-18 00:37:00,
2013-07-17 20:42:00,75.8,72.3,30.34,East,90,0.0,0.0,89,0.00,,,1.66,WUHU21623XXSP,2013-07-18 00:42:00,
2013-07-17 20:47:00,75.8,72.3,30.34,East,90,0.0,0.0,89,0.00,,,1.66,WUHU21623XXSP,2013-07-18 00:47:00,
2013-07-17 20:52:00,75.8,72.3,30.34,East,90,0.0,0.0,89,0.00,,,1.66,WUHU21623XXSP,2013-07-18 00:52:00,
2013-07-17 20:57:00,75.6,72.1,30.34,East,90,0.0,0.0,89,0.00,,,1.66,WUHU21623XXSP,2013-07-18 00:57:00,
2013-07-17 21:02:00,75.6,72.1,30.34,ENE,67,0.0,0.0,89,0.00,,,1.66,WUHU21623XXSP,2013-07-18 01:02:00,
2013-07-17 21:07:00,75.3,71.8,30.35,ENE,67,0.0,0.0,89,0.00,,,1.66,WUHU21623XXSP,2013-07-18 01:07:00,
2013-07-17 21:12:00,75.3,71.8,30.35,ENE,67,0.0,0.0,89,0.00,,,1.66,WUHU21623XXSP,2013-07-18 01:12:00,
2013-07-17 21:17:00,75.1,71.6,30.35,ENE,67,0.0,0.0,89,0.00,,,1.66,WUHU21623XXSP,2013-07-18 01:17:00,
2013-07-17 21:22:00,74.9,71.8,30.35,ENE,67,0.0,0.0,90,0.00,,,1.66,WUHU21623XXSP,2013-07-18 01:22:00,
2013-07-17 21:27:00,74.9,71.8,30.36,ENE,67,0.0,0.0,90,0.00,,,1.66,WUHU21623XXSP,2013-07-18 01:27:00,
2013-07-17 21:32:00,74.9,71.8,30.36,ENE,67,0.0,0.0,90,0.00,,,1.66,WUHU21623XXSP,2013-07-18 01:32:00,
2013-07-17 21:37:00,74.9,71.8,30.36,ENE,67,0.0,0.0,90,0.00,,,1.66,WUHU21623XXSP,2013-07-18 01:37:00,
2013-07-17 21:42:00,74.9,71.8,30.36,ENE,67,0.0,0.0,90,0.00,,,1.66,WUHU21623XXSP,2013-07-18 01:42:00,
2013-07-17 21:47:00,74.9,71.8,30.36,ENE,67,0.0,0.0,90,0.00,,,1.66,WUHU21623XXSP,2013-07-18 01:47:00,
2013-07-17 21:52:00,74.9,71.8,30.36,ENE,67,0.0,0.0,90,0.00,,,1.66,WUHU21623XXSP,2013-07-18 01:52:00,
2013-07-17 21:57:00,74.9,71.8,30.36,ENE,67,0.0,0.0,90,0.00,,,1.66,WUHU21623XXSP,2013-07-18 01:57:00,
2013-07-17 22:02:00,74.9,71.8,30.36,ENE,67,0.0,0.0,90,0.00,,,1.66,WUHU21623XXSP,2013-07-18 02:02:00,
2013-07-17 22:07:00,74.9,71.8,30.36,ENE,67,0.0,0.0,90,0.00,,,1.66,WUHU21623XXSP,2013-07-18 02:07:00,
2013-07-17 22:12:00,74.9,71.8,30.36,ENE,67,0.0,0.0,90,0.00,,,1.66,WUHU21623XXSP,2013-07-18 02:12:00,
2013-07-17 22:17:00,74.9,71.8,30.36,ENE,67,0.0,0.0,90,0.00,,,1.66,WUHU21623XXSP,2013-07-18 02:17:00,
2013-07-17 22:22:00,75.1,72.0,30.36,ENE,67,0.0,0.0,90,0.00,,,1.66,WUHU21623XXSP,2013-07-18 02:22:00,
2013-07-17 22:27:00,75.1,72.0,30.36,ENE,67,0.0,0.0,90,0.00,,,1.66,WUHU21623XXSP,2013-07-18 02:27:00,
2013-07-17 22:32:00,75.3,72.2,30.36,ENE,67,0.0,0.0,90,0.00,,,1.66,WUHU21623XXSP,2013-07-18 02:32:00,
2013-07-17 22:37:00,75.3,72.2,30.36,NE,45,0.0,0.0,90,0.00,,,1.66,WUHU21623XXSP,2013-07-18 02:37:00,
2013-07-17 22:42:00,75.5,72.4,30.36,ESE,112,0.0,0.0,90,0.00,,,1.66,WUHU21623XXSP,2013-07-18 02:42:00,
2013-07-17 22:47:00,75.6,72.4,30.36,ESE,112,0.0,0.0,90,0.00,,,1.66,WUHU21623XXSP,2013-07-18 02:47:00,
2013-07-17 22:52:00,75.6,72.4,30.36,ENE,67,0.0,0.0,90,0.00,,,1.66,WUHU21623XXSP,2013-07-18 02:52:00,
2013-07-17 22:57:00,75.6,72.4,30.36,ENE,67,0.0,0.0,90,0.00,,,1.66,WUHU21623XXSP,2013-07-18 02:57:00,
2013-07-17 23:02:00,75.6,72.4,30.36,ENE,67,0.0,0.0,90,0.00,,,1.66,WUHU21623XXSP,2013-07-18 03:02:00,
2013-07-17 23:07:00,75.6,72.4,30.37,East,90,0.0,0.0,90,0.00,,,1.66,WUHU21623XXSP,2013-07-18 03:07:00,
2013-07-17 23:12:00,75.8,72.6,30.37,SE,135,0.0,0.0,90,0.00,,,1.66,WUHU21623XXSP,2013-07-18 03:12:00,
2013-07-17 23:17:00,75.8,72.6,30.37,NE,45,0.0,0.0,90,0.00,,,1.66,WUHU21623XXSP,2013-07-18 03:17:00,
2013-07-17 23:22:00,75.8,72.6,30.37,ESE,112,0.0,0.0,90,0.00,,,1.66,WUHU21623XXSP,2013-07-18 03:22:00,
2013-07-17 23:27:00,76.0,72.8,30.37,SE,135,0.0,0.0,90,0.00,,,1.66,WUHU21623XXSP,2013-07-18 03:27:00,
2013-07-17 23:32:00,76.0,72.8,30.37,NE,45,0.0,0.0,90,0.00,,,1.66,WUHU21623XXSP,2013-07-18 03:32:00,
2013-07-17 23:37:00,76.2,73.0,30.37,East,90,0.0,0.0,90,0.00,,,1.66,WUHU21623XXSP,2013-07-18 03:37:00,
2013-07-17 23:42:00,76.2,73.0,30.37,SE,135,0.0,0.0,90,0.00,,,1.66,WUHU21623XXSP,2013-07-18 03:42:00,
2013-07-17 23:47:00,76.2,73.0,30.37,ENE,67,0.0,0.0,90,0.00,,,1.66,WUHU21623XXSP,2013-07-18 03:47:00,
2013-07-17 23:52:00,76.0,72.8,30.37,East,90,0.0,0.0,90,0.00,,,1.66,WUHU21623XXSP,2013-07-18 03:52:00,
2013-07-17 23:57:00,76.0,72.8,30.37,ENE,67,0.0,0.0,90,0.00,,,1.66,WUHU21623XXSP,2013-07-18 03:57:00,